sensor_id;sensor_type;location;lat;lon;timestamp;temperature;humidity
3921;DHT22;1975;49.356;6.816;2022-08-11T00:02:06;25.60;64.00
3921;DHT22;1975;49.356;6.816;2022-08-11T00:04:33;25.60;64.00
3921;DHT22;1975;49.356;6.816;2022-08-11T00:07:01;25.70;64.10
3921;DHT22;1975;49.356;6.816;2022-08-11T00:09:30;25.60;64.10
3921;DHT22;1975;49.356;6.816;2022-08-11T00:11:57;25.60;64.00
3921;DHT22;1975;49.356;6.816;2022-08-11T00:14:25;25.60;64.10
3921;DHT22;1975;49.356;6.816;2022-08-11T00:17:10;25.60;64.10
3921;DHT22;1975;49.356;6.816;2022-08-11T00:19:38;25.50;64.20
3921;DHT22;1975;49.356;6.816;2022-08-11T00:22:05;25.50;64.30
3921;DHT22;1975;49.356;6.816;2022-08-11T00:24:32;25.50;64.20
3921;DHT22;1975;49.356;6.816;2022-08-11T00:26:58;25.50;64.20
3921;DHT22;1975;49.356;6.816;2022-08-11T00:29:23;25.40;64.20
3921;DHT22;1975;49.356;6.816;2022-08-11T00:31:50;25.40;64.20
3921;DHT22;1975;49.356;6.816;2022-08-11T00:34:17;25.40;64.20
3921;DHT22;1975;49.356;6.816;2022-08-11T00:36:46;25.40;64.40
3921;DHT22;1975;49.356;6.816;2022-08-11T00:39:13;25.40;64.40
3921;DHT22;1975;49.356;6.816;2022-08-11T00:41:56;25.40;64.20
3921;DHT22;1975;49.356;6.816;2022-08-11T00:46:55;25.40;64.40
3921;DHT22;1975;49.356;6.816;2022-08-11T00:52:16;25.30;64.40
3921;DHT22;1975;49.356;6.816;2022-08-11T00:54:55;25.30;64.40
3921;DHT22;1975;49.356;6.816;2022-08-11T01:00:11;25.30;64.40
3921;DHT22;1975;49.356;6.816;2022-08-11T01:02:53;25.20;64.40
3921;DHT22;1975;49.356;6.816;2022-08-11T01:27:05;25.10;64.50
3921;DHT22;1975;49.356;6.816;2022-08-11T01:35:02;25.10;64.70
3921;DHT22;1975;49.356;6.816;2022-08-11T01:37:51;25.00;64.60
3921;DHT22;1975;49.356;6.816;2022-08-11T01:43:11;25.00;64.70
3921;DHT22;1975;49.356;6.816;2022-08-11T01:46:04;25.00;64.80
3921;DHT22;1975;49.356;6.816;2022-08-11T01:48:44;25.00;64.80
3921;DHT22;1975;49.356;6.816;2022-08-11T01:51:16;25.00;64.90
3921;DHT22;1975;49.356;6.816;2022-08-11T01:53:47;25.00;64.80
3921;DHT22;1975;49.356;6.816;2022-08-11T02:04:08;24.90;65.10
3921;DHT22;1975;49.356;6.816;2022-08-11T02:09:28;24.90;65.20
3921;DHT22;1975;49.356;6.816;2022-08-11T02:11:57;24.90;65.10
3921;DHT22;1975;49.356;6.816;2022-08-11T02:14:28;24.90;65.20
3921;DHT22;1975;49.356;6.816;2022-08-11T02:17:16;24.80;65.20
3921;DHT22;1975;49.356;6.816;2022-08-11T02:22:31;24.80;65.20
3921;DHT22;1975;49.356;6.816;2022-08-11T02:28:17;24.80;65.30
3921;DHT22;1975;49.356;6.816;2022-08-11T02:30:52;24.80;65.40
3921;DHT22;1975;49.356;6.816;2022-08-11T02:33:42;24.80;65.30
3921;DHT22;1975;49.356;6.816;2022-08-11T02:36:57;24.80;65.30
3921;DHT22;1975;49.356;6.816;2022-08-11T02:38:58;24.70;65.30
3921;DHT22;1975;49.356;6.816;2022-08-11T02:46:56;24.70;65.40
3921;DHT22;1975;49.356;6.816;2022-08-11T02:55:17;24.70;65.30
3921;DHT22;1975;49.356;6.816;2022-08-11T02:57:50;24.60;65.30
3921;DHT22;1975;49.356;6.816;2022-08-11T03:00:17;24.60;65.30
3921;DHT22;1975;49.356;6.816;2022-08-11T03:05:14;24.60;65.50
3921;DHT22;1975;49.356;6.816;2022-08-11T03:10:40;24.60;65.70
3921;DHT22;1975;49.356;6.816;2022-08-11T03:13:14;24.60;65.50
3921;DHT22;1975;49.356;6.816;2022-08-11T03:19:01;24.50;65.60
3921;DHT22;1975;49.356;6.816;2022-08-11T03:21:28;24.50;65.50
3921;DHT22;1975;49.356;6.816;2022-08-11T03:24:11;24.50;65.60
3921;DHT22;1975;49.356;6.816;2022-08-11T03:29:22;24.50;65.60
3921;DHT22;1975;49.356;6.816;2022-08-11T03:34:29;24.40;65.70
3921;DHT22;1975;49.356;6.816;2022-08-11T03:37:16;24.40;65.60
3921;DHT22;1975;49.356;6.816;2022-08-11T03:43:05;24.40;65.70
3921;DHT22;1975;49.356;6.816;2022-08-11T03:48:17;24.30;65.70
3921;DHT22;1975;49.356;6.816;2022-08-11T03:50:52;24.30;65.70
3921;DHT22;1975;49.356;6.816;2022-08-11T03:58:27;24.30;65.80
3921;DHT22;1975;49.356;6.816;2022-08-11T04:08:54;24.20;65.70
3921;DHT22;1975;49.356;6.816;2022-08-11T04:17:16;24.20;65.70
3921;DHT22;1975;49.356;6.816;2022-08-11T04:20:01;24.10;65.60
3921;DHT22;1975;49.356;6.816;2022-08-11T04:28:05;24.10;65.70
3921;DHT22;1975;49.356;6.816;2022-08-11T04:33:23;24.00;65.80
3921;DHT22;1975;49.356;6.816;2022-08-11T04:57:34;23.90;65.80
3921;DHT22;1975;49.356;6.816;2022-08-11T05:00:20;23.90;65.90
3921;DHT22;1975;49.356;6.816;2022-08-11T05:14:05;23.90;65.90
3921;DHT22;1975;49.356;6.816;2022-08-11T05:16:45;23.90;65.90
3921;DHT22;1975;49.356;6.816;2022-08-11T05:19:31;23.90;66.20
3921;DHT22;1975;49.356;6.816;2022-08-11T05:22:16;23.90;66.90
3921;DHT22;1975;49.356;6.816;2022-08-11T05:25:05;23.90;66.00
3921;DHT22;1975;49.356;6.816;2022-08-11T05:30:37;24.00;66.20
3921;DHT22;1975;49.356;6.816;2022-08-11T05:39:16;24.10;66.10
3921;DHT22;1975;49.356;6.816;2022-08-11T05:42:00;24.10;66.10
3921;DHT22;1975;49.356;6.816;2022-08-11T05:44:45;24.20;66.10
3921;DHT22;1975;49.356;6.816;2022-08-11T05:47:29;24.20;66.20
3921;DHT22;1975;49.356;6.816;2022-08-11T05:50:14;24.20;66.30
3921;DHT22;1975;49.356;6.816;2022-08-11T05:53:01;24.20;66.30
3921;DHT22;1975;49.356;6.816;2022-08-11T05:55:45;24.20;66.30
3921;DHT22;1975;49.356;6.816;2022-08-11T05:58:40;24.20;66.40
3921;DHT22;1975;49.356;6.816;2022-08-11T06:01:06;24.20;66.50
3921;DHT22;1975;49.356;6.816;2022-08-11T06:03:32;24.20;66.60
3921;DHT22;1975;49.356;6.816;2022-08-11T06:06:19;24.20;66.60
3921;DHT22;1975;49.356;6.816;2022-08-11T06:08:45;24.20;66.70
3921;DHT22;1975;49.356;6.816;2022-08-11T06:11:10;24.20;66.80
3921;DHT22;1975;49.356;6.816;2022-08-11T06:13:41;24.20;66.80
3921;DHT22;1975;49.356;6.816;2022-08-11T06:16:08;24.20;66.90
3921;DHT22;1975;49.356;6.816;2022-08-11T06:18:34;24.20;67.00
3921;DHT22;1975;49.356;6.816;2022-08-11T06:21:00;24.20;67.00
3921;DHT22;1975;49.356;6.816;2022-08-11T06:23:29;24.20;67.00
3921;DHT22;1975;49.356;6.816;2022-08-11T06:25:55;24.20;67.10
3921;DHT22;1975;49.356;6.816;2022-08-11T06:28:32;24.20;67.00
3921;DHT22;1975;49.356;6.816;2022-08-11T06:30:59;24.20;67.00
3921;DHT22;1975;49.356;6.816;2022-08-11T06:33:34;24.10;67.10
3921;DHT22;1975;49.356;6.816;2022-08-11T06:41:20;24.10;67.40
3921;DHT22;1975;49.356;6.816;2022-08-11T06:44:02;24.10;67.60
3921;DHT22;1975;49.356;6.816;2022-08-11T06:46:34;24.10;67.70
3921;DHT22;1975;49.356;6.816;2022-08-11T06:49:04;24.10;68.00
3921;DHT22;1975;49.356;6.816;2022-08-11T06:51:30;24.10;68.10
3921;DHT22;1975;49.356;6.816;2022-08-11T06:53:56;24.10;68.10
3921;DHT22;1975;49.356;6.816;2022-08-11T06:56:23;24.20;68.30
3921;DHT22;1975;49.356;6.816;2022-08-11T06:59:08;24.20;68.40
3921;DHT22;1975;49.356;6.816;2022-08-11T07:02:05;24.20;68.50
3921;DHT22;1975;49.356;6.816;2022-08-11T07:04:39;24.20;68.60
3921;DHT22;1975;49.356;6.816;2022-08-11T07:12:42;24.20;68.80
3921;DHT22;1975;49.356;6.816;2022-08-11T07:15:31;24.20;68.80
3921;DHT22;1975;49.356;6.816;2022-08-11T07:18:07;24.30;69.10
3921;DHT22;1975;49.356;6.816;2022-08-11T07:20:52;24.30;69.10
3921;DHT22;1975;49.356;6.816;2022-08-11T07:23:38;24.30;69.10
3921;DHT22;1975;49.356;6.816;2022-08-11T07:26:23;24.30;69.10
3921;DHT22;1975;49.356;6.816;2022-08-11T07:29:09;24.30;69.20
3921;DHT22;1975;49.356;6.816;2022-08-11T07:31:40;24.30;69.20
3921;DHT22;1975;49.356;6.816;2022-08-11T07:34:10;24.40;69.30
3921;DHT22;1975;49.356;6.816;2022-08-11T07:36:38;24.40;69.40
3921;DHT22;1975;49.356;6.816;2022-08-11T07:39:05;24.40;69.40
3921;DHT22;1975;49.356;6.816;2022-08-11T07:41:33;24.40;69.50
3921;DHT22;1975;49.356;6.816;2022-08-11T07:43:58;24.40;69.50
3921;DHT22;1975;49.356;6.816;2022-08-11T07:46:35;24.50;69.60
3921;DHT22;1975;49.356;6.816;2022-08-11T07:49:19;24.50;69.50
3921;DHT22;1975;49.356;6.816;2022-08-11T07:52:04;24.50;69.60
3921;DHT22;1975;49.356;6.816;2022-08-11T07:54:48;24.50;69.60
3921;DHT22;1975;49.356;6.816;2022-08-11T07:57:14;24.50;69.60
3921;DHT22;1975;49.356;6.816;2022-08-11T07:59:58;24.50;69.70
3921;DHT22;1975;49.356;6.816;2022-08-11T08:02:42;24.50;70.30
3921;DHT22;1975;49.356;6.816;2022-08-11T08:05:27;24.50;70.70
3921;DHT22;1975;49.356;6.816;2022-08-11T08:08:12;24.50;70.90
3921;DHT22;1975;49.356;6.816;2022-08-11T08:10:57;24.50;71.20
3921;DHT22;1975;49.356;6.816;2022-08-11T08:13:42;24.50;70.90
3921;DHT22;1975;49.356;6.816;2022-08-11T08:16:26;24.50;71.20
3921;DHT22;1975;49.356;6.816;2022-08-11T08:19:12;24.50;71.10
3921;DHT22;1975;49.356;6.816;2022-08-11T08:21:39;24.60;71.10
3921;DHT22;1975;49.356;6.816;2022-08-11T08:24:05;24.60;71.10
3921;DHT22;1975;49.356;6.816;2022-08-11T08:26:31;24.60;71.10
3921;DHT22;1975;49.356;6.816;2022-08-11T08:29:16;24.60;70.60
3921;DHT22;1975;49.356;6.816;2022-08-11T08:32:00;24.70;70.80
3921;DHT22;1975;49.356;6.816;2022-08-11T08:34:26;24.70;70.80
3921;DHT22;1975;49.356;6.816;2022-08-11T08:36:51;24.70;70.60
3921;DHT22;1975;49.356;6.816;2022-08-11T08:39:20;24.80;70.70
3921;DHT22;1975;49.356;6.816;2022-08-11T08:41:48;24.80;70.70
3921;DHT22;1975;49.356;6.816;2022-08-11T08:44:15;24.80;70.40
3921;DHT22;1975;49.356;6.816;2022-08-11T08:46:46;24.80;70.50
3921;DHT22;1975;49.356;6.816;2022-08-11T08:49:16;24.90;69.80
3921;DHT22;1975;49.356;6.816;2022-08-11T08:51:42;24.90;69.60
3921;DHT22;1975;49.356;6.816;2022-08-11T08:54:13;24.90;69.80
3921;DHT22;1975;49.356;6.816;2022-08-11T08:56:39;25.00;70.00
3921;DHT22;1975;49.356;6.816;2022-08-11T08:59:07;24.90;69.60
3921;DHT22;1975;49.356;6.816;2022-08-11T09:01:47;25.00;69.50
3921;DHT22;1975;49.356;6.816;2022-08-11T09:04:15;25.10;69.00
3921;DHT22;1975;49.356;6.816;2022-08-11T09:06:42;25.20;68.90
3921;DHT22;1975;49.356;6.816;2022-08-11T09:09:08;25.20;68.70
3921;DHT22;1975;49.356;6.816;2022-08-11T09:11:36;25.30;68.80
3921;DHT22;1975;49.356;6.816;2022-08-11T09:14:15;25.30;68.00
3921;DHT22;1975;49.356;6.816;2022-08-11T09:16:40;25.30;66.00
3921;DHT22;1975;49.356;6.816;2022-08-11T09:19:06;25.40;65.50
3921;DHT22;1975;49.356;6.816;2022-08-11T09:21:32;25.40;63.80
3921;DHT22;1975;49.356;6.816;2022-08-11T09:23:58;25.40;64.50
3921;DHT22;1975;49.356;6.816;2022-08-11T09:26:42;25.40;65.40
3921;DHT22;1975;49.356;6.816;2022-08-11T09:29:23;25.60;65.40
3921;DHT22;1975;49.356;6.816;2022-08-11T09:31:51;25.60;65.10
3921;DHT22;1975;49.356;6.816;2022-08-11T09:34:16;25.60;64.40
3921;DHT22;1975;49.356;6.816;2022-08-11T09:36:42;25.70;64.70
3921;DHT22;1975;49.356;6.816;2022-08-11T09:39:28;25.70;65.00
3921;DHT22;1975;49.356;6.816;2022-08-11T09:42:12;25.80;63.20
3921;DHT22;1975;49.356;6.816;2022-08-11T09:44:39;25.90;62.60
3921;DHT22;1975;49.356;6.816;2022-08-11T09:47:14;25.90;63.10
3921;DHT22;1975;49.356;6.816;2022-08-11T09:49:44;25.90;62.20
3921;DHT22;1975;49.356;6.816;2022-08-11T09:52:11;25.90;62.30
3921;DHT22;1975;49.356;6.816;2022-08-11T09:54:39;26.00;62.10
3921;DHT22;1975;49.356;6.816;2022-08-11T09:57:05;26.00;62.20
3921;DHT22;1975;49.356;6.816;2022-08-11T09:59:50;26.00;62.40
3921;DHT22;1975;49.356;6.816;2022-08-11T10:02:16;26.00;62.70
3921;DHT22;1975;49.356;6.816;2022-08-11T10:04:43;26.00;62.70
3921;DHT22;1975;49.356;6.816;2022-08-11T10:07:13;26.10;61.90
3921;DHT22;1975;49.356;6.816;2022-08-11T10:12:07;26.20;61.80
3921;DHT22;1975;49.356;6.816;2022-08-11T10:14:33;26.20;61.70
3921;DHT22;1975;49.356;6.816;2022-08-11T10:17:20;26.20;61.90
3921;DHT22;1975;49.356;6.816;2022-08-11T10:19:46;26.10;62.10
3921;DHT22;1975;49.356;6.816;2022-08-11T10:22:12;26.20;62.60
3921;DHT22;1975;49.356;6.816;2022-08-11T10:24:57;26.20;62.40
3921;DHT22;1975;49.356;6.816;2022-08-11T10:27:41;26.30;61.90
3921;DHT22;1975;49.356;6.816;2022-08-11T10:30:07;26.40;60.80
3921;DHT22;1975;49.356;6.816;2022-08-11T10:32:51;26.50;60.20
3921;DHT22;1975;49.356;6.816;2022-08-11T10:35:35;26.50;60.10
3921;DHT22;1975;49.356;6.816;2022-08-11T10:38:01;26.30;60.50
3921;DHT22;1975;49.356;6.816;2022-08-11T10:40:27;26.40;60.40
3921;DHT22;1975;49.356;6.816;2022-08-11T10:42:54;26.50;60.90
3921;DHT22;1975;49.356;6.816;2022-08-11T10:45:30;26.60;60.50
3921;DHT22;1975;49.356;6.816;2022-08-11T10:48:14;26.80;60.50
3921;DHT22;1975;49.356;6.816;2022-08-11T10:50:40;26.90;60.10
3921;DHT22;1975;49.356;6.816;2022-08-11T10:53:28;26.80;59.90
3921;DHT22;1975;49.356;6.816;2022-08-11T10:56:12;26.90;60.00
3921;DHT22;1975;49.356;6.816;2022-08-11T10:58:56;26.80;59.90
3921;DHT22;1975;49.356;6.816;2022-08-11T11:01:25;26.80;59.70
3921;DHT22;1975;49.356;6.816;2022-08-11T11:03:51;26.70;59.20
3921;DHT22;1975;49.356;6.816;2022-08-11T11:09:02;26.70;59.70
3921;DHT22;1975;49.356;6.816;2022-08-11T11:11:29;26.70;60.10
3921;DHT22;1975;49.356;6.816;2022-08-11T11:14:16;27.00;60.50
3921;DHT22;1975;49.356;6.816;2022-08-11T11:17:02;27.00;60.40
3921;DHT22;1975;49.356;6.816;2022-08-11T11:19:37;26.90;60.80
3921;DHT22;1975;49.356;6.816;2022-08-11T11:22:03;26.90;61.20
3921;DHT22;1975;49.356;6.816;2022-08-11T11:30:11;27.20;61.40
3921;DHT22;1975;49.356;6.816;2022-08-11T11:35:25;27.00;61.90
3921;DHT22;1975;49.356;6.816;2022-08-11T11:37:54;27.10;60.60
3921;DHT22;1975;49.356;6.816;2022-08-11T11:40:20;27.00;61.40
3921;DHT22;1975;49.356;6.816;2022-08-11T11:42:48;27.20;60.70
3921;DHT22;1975;49.356;6.816;2022-08-11T11:45:14;27.10;60.40
3921;DHT22;1975;49.356;6.816;2022-08-11T11:47:41;27.20;60.90
3921;DHT22;1975;49.356;6.816;2022-08-11T11:50:08;27.30;61.10
3921;DHT22;1975;49.356;6.816;2022-08-11T11:52:34;27.30;61.30
3921;DHT22;1975;49.356;6.816;2022-08-11T11:55:02;27.30;61.40
3921;DHT22;1975;49.356;6.816;2022-08-11T11:57:28;27.40;61.30
3921;DHT22;1975;49.356;6.816;2022-08-11T12:00:12;27.40;61.80
3921;DHT22;1975;49.356;6.816;2022-08-11T12:02:57;27.50;61.00
3921;DHT22;1975;49.356;6.816;2022-08-11T12:05:24;27.50;61.40
3921;DHT22;1975;49.356;6.816;2022-08-11T12:07:51;27.50;60.80
3921;DHT22;1975;49.356;6.816;2022-08-11T12:10:37;27.50;60.00
3921;DHT22;1975;49.356;6.816;2022-08-11T12:13:03;27.50;60.50
3921;DHT22;1975;49.356;6.816;2022-08-11T12:15:48;27.50;61.00
3921;DHT22;1975;49.356;6.816;2022-08-11T12:18:14;27.40;60.90
3921;DHT22;1975;49.356;6.816;2022-08-11T12:20:40;27.40;61.20
3921;DHT22;1975;49.356;6.816;2022-08-11T12:23:06;27.30;61.10
3921;DHT22;1975;49.356;6.816;2022-08-11T12:25:51;27.30;61.70
3921;DHT22;1975;49.356;6.816;2022-08-11T12:28:35;27.30;61.80
3921;DHT22;1975;49.356;6.816;2022-08-11T12:31:00;27.40;61.80
3921;DHT22;1975;49.356;6.816;2022-08-11T12:33:27;27.50;62.00
3921;DHT22;1975;49.356;6.816;2022-08-11T12:35:57;27.50;61.10
3921;DHT22;1975;49.356;6.816;2022-08-11T12:38:23;27.50;61.90
3921;DHT22;1975;49.356;6.816;2022-08-11T12:40:49;27.50;61.40
3921;DHT22;1975;49.356;6.816;2022-08-11T12:43:33;27.70;60.90
3921;DHT22;1975;49.356;6.816;2022-08-11T12:46:19;27.70;61.20
3921;DHT22;1975;49.356;6.816;2022-08-11T12:48:46;27.60;61.60
3921;DHT22;1975;49.356;6.816;2022-08-11T12:51:31;27.60;61.90
3921;DHT22;1975;49.356;6.816;2022-08-11T12:54:22;27.70;61.60
3921;DHT22;1975;49.356;6.816;2022-08-11T12:56:56;27.70;60.60
3921;DHT22;1975;49.356;6.816;2022-08-11T12:59:41;27.60;60.30
3921;DHT22;1975;49.356;6.816;2022-08-11T13:02:25;27.60;60.90
3921;DHT22;1975;49.356;6.816;2022-08-11T13:05:11;27.70;60.80
3921;DHT22;1975;49.356;6.816;2022-08-11T13:07:36;27.80;60.90
3921;DHT22;1975;49.356;6.816;2022-08-11T13:10:04;27.90;60.60
3921;DHT22;1975;49.356;6.816;2022-08-11T13:12:30;28.00;60.60
3921;DHT22;1975;49.356;6.816;2022-08-11T13:17:40;27.90;61.30
3921;DHT22;1975;49.356;6.816;2022-08-11T13:20:09;28.00;60.90
3921;DHT22;1975;49.356;6.816;2022-08-11T13:22:36;27.90;61.60
3921;DHT22;1975;49.356;6.816;2022-08-11T13:25:03;27.90;62.90
3921;DHT22;1975;49.356;6.816;2022-08-11T13:27:29;27.90;63.10
3921;DHT22;1975;49.356;6.816;2022-08-11T13:29:54;27.80;62.90
3921;DHT22;1975;49.356;6.816;2022-08-11T13:32:40;27.70;62.40
3921;DHT22;1975;49.356;6.816;2022-08-11T13:35:06;27.60;63.30
3921;DHT22;1975;49.356;6.816;2022-08-11T13:37:32;27.60;63.60
3921;DHT22;1975;49.356;6.816;2022-08-11T13:39:59;27.60;63.50
3921;DHT22;1975;49.356;6.816;2022-08-11T13:42:26;27.70;63.70
3921;DHT22;1975;49.356;6.816;2022-08-11T13:44:52;27.90;63.20
3921;DHT22;1975;49.356;6.816;2022-08-11T13:47:17;27.90;62.40
3921;DHT22;1975;49.356;6.816;2022-08-11T13:49:46;28.00;61.60
3921;DHT22;1975;49.356;6.816;2022-08-11T13:52:12;28.00;61.00
3921;DHT22;1975;49.356;6.816;2022-08-11T13:54:38;28.10;61.10
3921;DHT22;1975;49.356;6.816;2022-08-11T13:57:06;28.10;61.00
3921;DHT22;1975;49.356;6.816;2022-08-11T13:59:32;28.20;61.30
3921;DHT22;1975;49.356;6.816;2022-08-11T14:01:58;28.30;60.90
3921;DHT22;1975;49.356;6.816;2022-08-11T14:07:02;28.30;61.30
3921;DHT22;1975;49.356;6.816;2022-08-11T14:09:31;28.30;61.30
3921;DHT22;1975;49.356;6.816;2022-08-11T14:12:00;28.40;60.00
3921;DHT22;1975;49.356;6.816;2022-08-11T14:14:48;28.60;59.60
3921;DHT22;1975;49.356;6.816;2022-08-11T14:17:15;28.70;59.00
3921;DHT22;1975;49.356;6.816;2022-08-11T14:19:41;28.80;58.60
3921;DHT22;1975;49.356;6.816;2022-08-11T14:22:08;28.70;58.80
3921;DHT22;1975;49.356;6.816;2022-08-11T14:24:37;28.70;59.00
3921;DHT22;1975;49.356;6.816;2022-08-11T14:27:04;28.50;59.80
3921;DHT22;1975;49.356;6.816;2022-08-11T14:29:30;28.40;60.50
3921;DHT22;1975;49.356;6.816;2022-08-11T14:32:00;28.20;60.90
3921;DHT22;1975;49.356;6.816;2022-08-11T14:34:27;28.10;61.40
3921;DHT22;1975;49.356;6.816;2022-08-11T14:36:55;28.00;61.70
3921;DHT22;1975;49.356;6.816;2022-08-11T14:39:27;28.00;62.10
3921;DHT22;1975;49.356;6.816;2022-08-11T14:41:54;27.90;62.40
3921;DHT22;1975;49.356;6.816;2022-08-11T14:44:41;27.90;62.70
3921;DHT22;1975;49.356;6.816;2022-08-11T14:47:25;27.80;63.00
3921;DHT22;1975;49.356;6.816;2022-08-11T14:49:53;27.80;63.20
3921;DHT22;1975;49.356;6.816;2022-08-11T14:52:19;27.70;63.40
3921;DHT22;1975;49.356;6.816;2022-08-11T14:54:48;27.70;63.70
3921;DHT22;1975;49.356;6.816;2022-08-11T14:57:35;27.70;63.90
3921;DHT22;1975;49.356;6.816;2022-08-11T15:00:02;27.70;64.10
3921;DHT22;1975;49.356;6.816;2022-08-11T15:02:28;27.70;64.10
3921;DHT22;1975;49.356;6.816;2022-08-11T15:05:12;27.70;64.00
3921;DHT22;1975;49.356;6.816;2022-08-11T15:07:38;27.70;64.00
3921;DHT22;1975;49.356;6.816;2022-08-11T15:10:05;27.70;64.20
3921;DHT22;1975;49.356;6.816;2022-08-11T15:12:31;27.70;64.30
3921;DHT22;1975;49.356;6.816;2022-08-11T15:14:57;27.70;64.50
3921;DHT22;1975;49.356;6.816;2022-08-11T15:17:42;27.70;64.40
3921;DHT22;1975;49.356;6.816;2022-08-11T15:20:09;27.70;64.40
3921;DHT22;1975;49.356;6.816;2022-08-11T15:22:54;27.70;64.50
3921;DHT22;1975;49.356;6.816;2022-08-11T15:25:39;27.70;64.60
3921;DHT22;1975;49.356;6.816;2022-08-11T15:28:07;27.70;64.70
3921;DHT22;1975;49.356;6.816;2022-08-11T15:30:54;27.70;64.80
3921;DHT22;1975;49.356;6.816;2022-08-11T15:33:39;27.80;64.70
3921;DHT22;1975;49.356;6.816;2022-08-11T15:36:24;27.70;64.60
3921;DHT22;1975;49.356;6.816;2022-08-11T15:39:20;27.80;64.80
3921;DHT22;1975;49.356;6.816;2022-08-11T15:42:07;27.80;64.80
3921;DHT22;1975;49.356;6.816;2022-08-11T15:44:55;27.80;64.70
3921;DHT22;1975;49.356;6.816;2022-08-11T15:47:41;27.80;64.90
3921;DHT22;1975;49.356;6.816;2022-08-11T15:50:15;27.80;64.90
3921;DHT22;1975;49.356;6.816;2022-08-11T15:52:58;27.80;64.80
3921;DHT22;1975;49.356;6.816;2022-08-11T15:55:24;27.80;64.60
3921;DHT22;1975;49.356;6.816;2022-08-11T15:57:50;27.90;64.70
3921;DHT22;1975;49.356;6.816;2022-08-11T16:00:36;27.90;64.80
3921;DHT22;1975;49.356;6.816;2022-08-11T16:03:21;27.90;64.80
3921;DHT22;1975;49.356;6.816;2022-08-11T16:06:06;27.90;64.90
3921;DHT22;1975;49.356;6.816;2022-08-11T16:08:32;27.90;64.90
3921;DHT22;1975;49.356;6.816;2022-08-11T16:10:59;27.90;65.00
3921;DHT22;1975;49.356;6.816;2022-08-11T16:13:25;27.90;65.00
3921;DHT22;1975;49.356;6.816;2022-08-11T16:15:52;27.90;65.10
3921;DHT22;1975;49.356;6.816;2022-08-11T16:18:38;27.90;65.10
3921;DHT22;1975;49.356;6.816;2022-08-11T16:21:13;27.90;65.00
3921;DHT22;1975;49.356;6.816;2022-08-11T16:23:41;28.00;65.10
3921;DHT22;1975;49.356;6.816;2022-08-11T16:26:07;28.00;65.20
3921;DHT22;1975;49.356;6.816;2022-08-11T16:28:33;27.90;65.20
3921;DHT22;1975;49.356;6.816;2022-08-11T16:31:00;28.00;65.20
3921;DHT22;1975;49.356;6.816;2022-08-11T16:33:26;28.00;65.20
3921;DHT22;1975;49.356;6.816;2022-08-11T16:35:53;28.00;65.30
3921;DHT22;1975;49.356;6.816;2022-08-11T16:38:37;28.00;65.30
3921;DHT22;1975;49.356;6.816;2022-08-11T16:41:06;28.00;65.30
3921;DHT22;1975;49.356;6.816;2022-08-11T16:43:33;28.00;65.30
3921;DHT22;1975;49.356;6.816;2022-08-11T16:46:18;28.00;65.30
3921;DHT22;1975;49.356;6.816;2022-08-11T16:49:04;28.00;65.30
3921;DHT22;1975;49.356;6.816;2022-08-11T16:51:30;28.00;65.40
3921;DHT22;1975;49.356;6.816;2022-08-11T16:53:56;28.00;65.40
3921;DHT22;1975;49.356;6.816;2022-08-11T16:56:23;28.10;65.50
3921;DHT22;1975;49.356;6.816;2022-08-11T16:58:50;28.10;65.50
3921;DHT22;1975;49.356;6.816;2022-08-11T17:01:34;28.10;66.20
3921;DHT22;1975;49.356;6.816;2022-08-11T17:07:11;28.10;65.40
3921;DHT22;1975;49.356;6.816;2022-08-11T17:09:56;28.10;65.40
3921;DHT22;1975;49.356;6.816;2022-08-11T17:12:40;28.20;59.30
3921;DHT22;1975;49.356;6.816;2022-08-11T17:15:25;28.20;57.30
3921;DHT22;1975;49.356;6.816;2022-08-11T17:18:11;28.30;57.10
3921;DHT22;1975;49.356;6.816;2022-08-11T17:20:58;28.30;56.60
3921;DHT22;1975;49.356;6.816;2022-08-11T17:23:24;28.30;56.70
3921;DHT22;1975;49.356;6.816;2022-08-11T17:26:08;28.40;56.40
3921;DHT22;1975;49.356;6.816;2022-08-11T17:28:33;28.30;56.60
3921;DHT22;1975;49.356;6.816;2022-08-11T17:30:59;28.30;56.70
3921;DHT22;1975;49.356;6.816;2022-08-11T17:33:45;28.30;57.00
3921;DHT22;1975;49.356;6.816;2022-08-11T17:36:29;28.20;56.60
3921;DHT22;1975;49.356;6.816;2022-08-11T17:38:55;28.20;56.80
3921;DHT22;1975;49.356;6.816;2022-08-11T17:41:21;28.20;56.70
3921;DHT22;1975;49.356;6.816;2022-08-11T17:44:05;28.10;57.00
3921;DHT22;1975;49.356;6.816;2022-08-11T17:46:49;28.10;56.90
3921;DHT22;1975;49.356;6.816;2022-08-11T17:49:34;28.10;57.00
3921;DHT22;1975;49.356;6.816;2022-08-11T17:52:02;28.10;56.70
3921;DHT22;1975;49.356;6.816;2022-08-11T17:54:46;28.10;56.70
3921;DHT22;1975;49.356;6.816;2022-08-11T17:57:30;28.00;56.90
3921;DHT22;1975;49.356;6.816;2022-08-11T18:00:14;28.00;57.00
3921;DHT22;1975;49.356;6.816;2022-08-11T18:02:43;28.00;57.40
3921;DHT22;1975;49.356;6.816;2022-08-11T18:05:30;28.00;57.80
3921;DHT22;1975;49.356;6.816;2022-08-11T18:07:57;27.90;56.60
3921;DHT22;1975;49.356;6.816;2022-08-11T18:10:42;27.90;56.80
3921;DHT22;1975;49.356;6.816;2022-08-11T18:13:28;27.90;56.90
3921;DHT22;1975;49.356;6.816;2022-08-11T18:16:12;27.80;57.00
3921;DHT22;1975;49.356;6.816;2022-08-11T18:18:56;27.80;57.90
3921;DHT22;1975;49.356;6.816;2022-08-11T18:21:41;27.90;58.30
3921;DHT22;1975;49.356;6.816;2022-08-11T18:24:26;27.90;58.00
3921;DHT22;1975;49.356;6.816;2022-08-11T18:27:11;28.00;57.80
3921;DHT22;1975;49.356;6.816;2022-08-11T18:29:59;28.00;57.90
3921;DHT22;1975;49.356;6.816;2022-08-11T18:32:43;28.00;58.40
3921;DHT22;1975;49.356;6.816;2022-08-11T18:35:29;28.00;58.50
3921;DHT22;1975;49.356;6.816;2022-08-11T18:38:14;28.00;58.80
3921;DHT22;1975;49.356;6.816;2022-08-11T18:40:59;27.90;58.60
3921;DHT22;1975;49.356;6.816;2022-08-11T18:43:44;27.80;58.50
3921;DHT22;1975;49.356;6.816;2022-08-11T18:46:32;27.80;58.70
3921;DHT22;1975;49.356;6.816;2022-08-11T18:49:18;27.80;58.60
3921;DHT22;1975;49.356;6.816;2022-08-11T18:52:03;27.80;58.90
3921;DHT22;1975;49.356;6.816;2022-08-11T18:54:48;27.80;59.00
3921;DHT22;1975;49.356;6.816;2022-08-11T18:57:33;27.80;58.90
3921;DHT22;1975;49.356;6.816;2022-08-11T19:00:19;27.70;59.00
3921;DHT22;1975;49.356;6.816;2022-08-11T19:03:03;27.70;59.10
3921;DHT22;1975;49.356;6.816;2022-08-11T19:05:48;27.70;59.10
3921;DHT22;1975;49.356;6.816;2022-08-11T19:08:40;27.70;59.30
3921;DHT22;1975;49.356;6.816;2022-08-11T19:11:24;27.60;59.30
3921;DHT22;1975;49.356;6.816;2022-08-11T19:14:13;27.60;59.40
3921;DHT22;1975;49.356;6.816;2022-08-11T19:17:00;27.60;59.80
3921;DHT22;1975;49.356;6.816;2022-08-11T19:19:45;27.60;59.60
3921;DHT22;1975;49.356;6.816;2022-08-11T19:22:30;27.60;59.80
3921;DHT22;1975;49.356;6.816;2022-08-11T19:25:14;27.60;59.80
3921;DHT22;1975;49.356;6.816;2022-08-11T19:27:59;27.60;59.90
3921;DHT22;1975;49.356;6.816;2022-08-11T19:30:44;27.50;60.00
3921;DHT22;1975;49.356;6.816;2022-08-11T19:33:28;27.60;60.20
3921;DHT22;1975;49.356;6.816;2022-08-11T19:36:13;27.60;60.20
3921;DHT22;1975;49.356;6.816;2022-08-11T19:38:57;27.50;60.40
3921;DHT22;1975;49.356;6.816;2022-08-11T19:41:42;27.50;60.40
3921;DHT22;1975;49.356;6.816;2022-08-11T19:44:27;27.50;60.50
3921;DHT22;1975;49.356;6.816;2022-08-11T19:47:12;27.50;60.60
3921;DHT22;1975;49.356;6.816;2022-08-11T19:49:56;27.50;60.40
3921;DHT22;1975;49.356;6.816;2022-08-11T19:52:42;27.50;60.60
3921;DHT22;1975;49.356;6.816;2022-08-11T19:55:26;27.40;60.60
3921;DHT22;1975;49.356;6.816;2022-08-11T19:58:11;27.40;60.70
3921;DHT22;1975;49.356;6.816;2022-08-11T20:00:55;27.40;60.80